Giove Jet — IJNX — position and weather

sailwx.info

Track history (hours):
 
Tides and Currents Weather Stations Pressure Air Temp Water Temp Dewpoint Dewpoint Depression Visibility Wind Speed Wind Dir Waves Ship Positions

Giove Jet

Last reported at 2017-Dec-07 09:19 UTC. Time now 2017-Dec-13 08:55 UTC.
Position N 40°49' E 014°16'.

Length 33 m; draft 1.1 m.

Type: Passenger vessel. MMSI: 247049500.

Date/timePositionNaut miles runAvg speedWind from/ knotsBaromVisibWave heightAir tempDewpointWater temp
2017-Dec-07 09:19N 40°49' E 014°16'  
2017-Dec-04 10:13N 40°47' E 014°11'4 4.5
2017-Dec-04 09:19N 40°49' E 014°16'  
2017-Dec-01 13:36N 40°50' E 014°13'112.2
2017-Dec-01 13:30N 40°49' E 014°15'1 1.5
2017-Dec-01 13:00N 40°49' E 014°15'7 2.5
2017-Dec-01 10:19N 40°47' E 014°07'7 6.8
2017-Dec-01 09:17N 40°49' E 014°16'827.0
2017-Dec-01 09:00N 40°46' E 014°06'7 0.4
2017-Nov-30 14:21N 40°50' E 014°13'1 0.0
2017-Nov-29 12:59N 40°49' E 014°14'14 6.6
2017-Nov-29 10:49N 40°45' E 013°56'818.0
2017-Nov-29 10:21N 40°47' E 014°07'6 5.7
2017-Nov-29 09:15N 40°49' E 014°15'725.8
2017-Nov-29 08:59N 40°47' E 014°06'6 0.4
2017-Nov-28 16:34N 40°50' E 014°13'0 2.8
2017-Nov-28 16:30N 40°50' E 014°14'2 4.0
2017-Nov-28 16:00N 40°48' E 014°16'8 4.2
2017-Nov-28 14:07N 40°46' E 014°06'325.5
2017-Nov-28 14:00N 40°47' E 014°10'5 4.7
2017-Nov-28 13:00N 40°48' E 014°16'7 2.8
2017-Nov-28 10:21N 40°47' E 014°06'7 2.1
2017-Nov-28 06:54N 40°48' E 014°16'2 0.1
2017-Nov-27 13:34N 40°50' E 014°13'0 4.4
2017-Nov-27 13:30N 40°50' E 014°14'2 3.8
2017-Nov-27 13:00N 40°48' E 014°16'15 6.8
2017-Nov-27 10:47N 40°45' E 013°56'717.0
2017-Nov-27 10:22N 40°46' E 014°05'  
Track history (hours):
 
Tides and Currents Weather Stations Pressure Air Temp Water Temp Dewpoint Dewpoint Depression Visibility Wind Speed Wind Dir Waves Ship Positions

Giove Jet

Last reported at 2017-Dec-07 09:19 UTC. Time now 2017-Dec-13 08:55 UTC.
Position N 40°49' E 014°16'.

Length 33 m; draft 1.1 m.

Type: Passenger vessel. MMSI: 247049500.

Date/timePositionNaut miles runAvg speedWind from/ knotsBaromVisibWave heightAir tempDewpointWater temp
2017-Dec-07 09:19N 40°49' E 014°16'  
2017-Dec-04 10:13N 40°47' E 014°11'4 4.5
2017-Dec-04 09:19N 40°49' E 014°16'  
2017-Dec-01 13:36N 40°50' E 014°13'112.2
2017-Dec-01 13:30N 40°49' E 014°15'1 1.5
2017-Dec-01 13:00N 40°49' E 014°15'7 2.5
2017-Dec-01 10:19N 40°47' E 014°07'7 6.8
2017-Dec-01 09:17N 40°49' E 014°16'827.0
2017-Dec-01 09:00N 40°46' E 014°06'7 0.4
2017-Nov-30 14:21N 40°50' E 014°13'1 0.0
2017-Nov-29 12:59N 40°49' E 014°14'14 6.6
2017-Nov-29 10:49N 40°45' E 013°56'818.0
2017-Nov-29 10:21N 40°47' E 014°07'6 5.7
2017-Nov-29 09:15N 40°49' E 014°15'725.8
2017-Nov-29 08:59N 40°47' E 014°06'6 0.4
2017-Nov-28 16:34N 40°50' E 014°13'0 2.8
2017-Nov-28 16:30N 40°50' E 014°14'2 4.0
2017-Nov-28 16:00N 40°48' E 014°16'8 4.2
2017-Nov-28 14:07N 40°46' E 014°06'325.5
2017-Nov-28 14:00N 40°47' E 014°10'5 4.7
2017-Nov-28 13:00N 40°48' E 014°16'7 2.8
2017-Nov-28 10:21N 40°47' E 014°06'7 2.1
2017-Nov-28 06:54N 40°48' E 014°16'2 0.1
2017-Nov-27 13:34N 40°50' E 014°13'0 4.4
2017-Nov-27 13:30N 40°50' E 014°14'2 3.8
2017-Nov-27 13:00N 40°48' E 014°16'15 6.8
2017-Nov-27 10:47N 40°45' E 013°56'717.0
2017-Nov-27 10:22N 40°46' E 014°05'  

Dump ship's entire track history